Time;durP1;ratioP1;P1;durP2;ratioP2;P2;SDS_P1;SDS_P2;PMS_P1;PMS_P2;Temp;Humidity;BMP_temperature;BMP_pressure;BME280_temperature;BME280_humidity;BME280_pressure;Samples;Min_cycle;Max_cycle;Signal;HPM_P1;HPM_P2
2021/06/29 00:00:09;;;;;;;0.40;0.40;;;;;;;15.52;100.00;96786.09;29395;226;63004;-63
2021/06/29 00:00:41;;;;;;;0.40;0.40;;;;;;;15.55;100.00;96776.44;29395;212;63008;-63
2021/06/29 00:01:12;;;;;;;0.40;0.40;;;;;;;15.58;100.00;96781.28;29394;209;64008;-63
2021/06/29 00:01:45;;;;;;;0.40;0.40;;;;;;;15.58;100.00;96782.09;29395;214;63009;-64
2021/06/29 00:02:17;;;;;;;0.40;0.40;;;;;;;15.57;100.00;96779.69;29395;198;63005;-63
2021/06/29 00:03:04;;;;;;;0.40;0.40;;;;;;;15.55;100.00;96781.91;29395;202;63015;-63
2021/06/29 00:03:36;;;;;;;0.40;0.40;;;;;;;15.59;100.00;96774.69;29395;223;63005;-62
2021/06/29 00:04:07;;;;;;;0.40;0.40;;;;;;;15.58;100.00;96782.09;29395;204;63009;-63
2021/06/29 00:04:38;;;;;;;0.40;0.40;;;;;;;15.58;100.00;96775.81;29395;208;63005;-63
2021/06/29 00:05:10;;;;;;;0.40;0.40;;;;;;;15.59;100.00;96777.41;29395;202;63009;-63
2021/06/29 00:05:42;;;;;;;0.40;0.40;;;;;;;15.59;100.00;96783.69;29395;212;63004;-63
2021/06/29 00:06:14;;;;;;;0.40;0.40;;;;;;;15.59;100.00;96782.88;29394;228;64013;-64
2021/06/29 00:06:48;;;;;;;0.40;0.40;;;;;;;15.60;100.00;96789.94;29395;220;63004;-62
2021/06/29 00:07:20;;;;;;;0.40;0.40;;;;;;;15.59;100.00;96788.34;29395;210;63009;-63
2021/06/29 00:07:52;;;;;;;0.40;0.40;;;;;;;15.60;100.00;96784.47;29395;227;63004;-65
2021/06/29 00:08:23;;;;;;;0.40;0.40;;;;;;;15.63;100.00;96792.00;29395;313;63009;-64
2021/06/29 00:08:54;;;;;;;0.40;0.40;;;;;;;15.65;100.00;96797.97;29395;246;63005;-67
2021/06/29 00:09:25;;;;;;;0.40;0.40;;;;;;;15.66;100.00;96799.56;29395;224;63028;-62
2021/06/29 00:09:57;;;;;;;0.40;0.40;;;;;;;15.63;100.00;96789.28;29395;217;63005;-63
2021/06/29 00:10:30;;;;;;;0.40;0.40;;;;;;;15.64;100.00;96796.34;29395;208;63009;-63
2021/06/29 00:11:02;;;;;;;0.50;0.50;;;;;;;15.65;100.00;96797.97;29394;217;64009;-63
2021/06/29 00:11:33;;;;;;;0.50;0.50;;;;;;;15.65;100.00;96797.97;29395;221;63009;-62
2021/06/29 00:12:05;;;;;;;0.40;0.40;;;;;;;15.66;100.00;96794.09;29395;197;63005;-61
2021/06/29 00:12:37;;;;;;;0.50;0.50;;;;;;;15.64;100.00;96801.81;29395;209;63009;-63
2021/06/29 00:13:09;;;;;;;0.50;0.50;;;;;;;15.63;100.00;96802.94;29395;197;63004;-66
2021/06/29 00:13:40;;;;;;;0.40;0.40;;;;;;;15.65;100.00;96792.50;29395;285;63009;-63
2021/06/29 00:14:11;;;;;;;0.50;0.50;;;;;;;15.68;100.00;96797.31;29395;301;63004;-62
2021/06/29 00:14:45;;;;;;;0.40;0.40;;;;;;;15.73;100.00;96799.87;29395;204;63009;-62
2021/06/29 00:15:16;;;;;;;0.40;0.40;;;;;;;15.73;100.00;96795.19;29395;233;63004;-62
2021/06/29 00:15:48;;;;;;;0.40;0.40;;;;;;;15.73;100.00;96788.94;29395;209;63009;-62
2021/06/29 00:16:20;;;;;;;0.40;0.40;;;;;;;15.72;100.00;96787.31;29394;292;64009;-63
2021/06/29 00:16:52;;;;;;;0.40;0.40;;;;;;;15.70;100.00;96795.06;29395;227;63009;-63
2021/06/29 00:17:23;;;;;;;0.40;0.40;;;;;;;15.69;100.00;96793.44;29395;205;63005;-63
2021/06/29 00:17:56;;;;;;;0.40;0.40;;;;;;;15.66;100.00;96794.91;29395;202;63009;-63
2021/06/29 00:18:27;;;;;;;0.40;0.40;;;;;;;15.64;100.00;96801.81;29395;318;63005;-62
2021/06/29 00:18:59;;;;;;;0.43;0.43;;;;;;;15.65;100.00;96803.44;29395;197;63009;-62
2021/06/29 00:19:30;;;;;;;0.40;0.40;;;;;;;15.67;100.00;96806.66;29395;213;63005;-62
2021/06/29 00:20:03;;;;;;;0.40;0.40;;;;;;;15.66;100.00;96805.03;29395;245;63009;-65
2021/06/29 00:20:38;;;;;;;0.40;0.40;;;;;;;15.69;100.00;96807.13;29395;216;63004;-62
2021/06/29 00:21:09;;;;;;;0.40;0.40;;;;;;;15.67;100.00;96806.66;29395;198;63009;-62
2021/06/29 00:21:40;;;;;;;0.40;0.40;;;;;;;15.63;100.00;96814.69;29394;295;64009;-62
2021/06/29 00:22:11;;;;;;;0.40;0.40;;;;;;;15.66;100.00;96808.56;29395;259;63009;-67
2021/06/29 00:22:43;;;;;;;0.40;0.40;;;;;;;15.73;100.00;96808.06;29395;228;63009;-64
2021/06/29 00:23:15;;;;;;;0.40;0.40;;;;;;;15.73;100.00;96813.53;29395;208;63008;-62
2021/06/29 00:23:47;;;;;;;0.40;0.40;;;;;;;15.69;100.00;96812.59;29395;199;63005;-63
2021/06/29 00:24:18;;;;;;;0.40;0.40;;;;;;;15.69;100.00;96810.66;29395;224;63009;-62
2021/06/29 00:24:49;;;;;;;0.50;0.50;;;;;;;15.71;100.00;96805.66;29394;216;64009;-62
2021/06/29 00:25:21;;;;;;;0.40;0.40;;;;;;;15.72;100.00;96814.66;29395;210;63023;-61
2021/06/29 00:25:52;;;;;;;0.40;0.40;;;;;;;15.74;100.00;96796.00;29395;249;63010;-62
2021/06/29 00:26:24;;;;;;;0.50;0.50;;;;;;;15.75;100.00;96803.88;29395;296;63009;-63
2021/06/29 00:26:55;;;;;;;0.40;0.40;;;;;;;15.74;100.00;96807.75;29395;218;63005;-62
2021/06/29 00:27:26;;;;;;;0.50;0.50;;;;;;;15.70;100.00;96800.53;29395;205;63009;-63
2021/06/29 00:27:58;;;;;;;0.40;0.40;;;;;;;15.68;100.00;96798.13;29394;288;64009;-61
2021/06/29 00:28:29;;;;;;;0.40;0.40;;;;;;;15.68;100.00;96795.38;29395;247;63009;-62
2021/06/29 00:29:01;;;;;;;0.40;0.40;;;;;;;15.68;100.00;96797.31;29395;260;63004;-62
2021/06/29 00:29:32;;;;;;;0.40;0.40;;;;;;;15.65;100.00;96798.75;29395;333;63009;-61
2021/06/29 00:30:06;;;;;;;0.43;0.43;;;;;;;15.62;100.00;96799.41;29395;291;63004;-63
2021/06/29 00:30:37;;;;;;;0.47;0.47;;;;;;;15.65;100.00;96797.97;29395;329;63008;-63
2021/06/29 00:31:09;;;;;;;0.50;0.50;;;;;;;15.61;100.00;96797.00;29394;223;64009;-63
2021/06/29 00:31:40;;;;;;;0.47;0.47;;;;;;;15.57;100.00;96796.09;29395;350;63019;-61
2021/06/29 00:32:13;;;;;;;0.40;0.40;;;;;;;15.59;100.00;96791.91;29395;366;63005;-63
2021/06/29 00:32:45;;;;;;;0.40;0.40;;;;;;;15.55;100.00;96784.63;29395;211;63009;-60
2021/06/29 00:33:17;;;;;;;0.43;0.43;;;;;;;15.52;100.00;96788.81;29395;208;63005;-61
2021/06/29 00:33:50;;;;;;;0.50;0.50;;;;;;;15.52;100.00;96790.75;29394;330;64013;-61
2021/06/29 00:34:21;;;;;;;0.45;0.45;;;;;;;15.53;100.00;96778.69;29395;228;63005;-63
2021/06/29 00:34:52;;;;;;;0.70;0.70;;;;;;;15.51;100.00;96787.22;29395;203;63021;-62
2021/06/29 00:35:23;;;;;;;0.50;0.50;;;;;;;15.51;100.00;96792.69;29395;227;63004;-61
2021/06/29 00:35:55;;;;;;;0.40;0.40;;;;;;;15.52;100.00;96785.28;29395;245;63009;-61
2021/06/29 00:36:26;;;;;;;0.40;0.40;;;;;;;15.52;100.00;96779.81;29395;212;63004;-61
2021/06/29 00:36:57;;;;;;;0.50;0.50;;;;;;;15.51;100.00;96775.47;29395;221;63009;-61
2021/06/29 00:37:28;;;;;;;0.40;0.40;;;;;;;15.53;100.00;96773.22;29394;210;64009;-63
2021/06/29 00:37:59;;;;;;;0.50;0.50;;;;;;;15.53;100.00;96773.22;29395;321;63008;-63
2021/06/29 00:38:31;;;;;;;0.40;0.40;;;;;;;15.57;100.00;96779.69;29395;252;63010;-61
2021/06/29 00:39:05;;;;;;;0.40;0.40;;;;;;;15.59;100.00;96777.41;29395;218;63009;-61
2021/06/29 00:39:37;;;;;;;0.40;0.40;;;;;;;15.60;100.00;96774.31;29395;209;63005;-61
2021/06/29 00:40:11;;;;;;;0.40;0.40;;;;;;;15.58;100.00;96778.53;29395;211;63026;-62
2021/06/29 00:40:43;;;;;;;0.40;0.40;;;;;;;15.57;100.00;96775.00;29395;285;63005;-62
2021/06/29 00:41:18;;;;;;;0.40;0.40;;;;;;;15.57;100.00;96780.47;29395;226;63009;-61
2021/06/29 00:41:49;;;;;;;0.40;0.40;;;;;;;15.58;100.00;96784.00;29394;216;64009;-63
2021/06/29 00:42:20;;;;;;;0.40;0.40;;;;;;;15.57;100.00;96779.69;29395;232;63009;-61
2021/06/29 00:42:51;;;;;;;0.50;0.50;;;;;;;15.57;100.00;96768.75;29395;265;63004;-62
2021/06/29 00:43:23;;;;;;;0.40;0.40;;;;;;;15.53;100.00;96767.75;29395;220;63004;-61
2021/06/29 00:43:54;;;;;;;0.40;0.40;;;;;;;15.56;100.00;96767.09;29395;224;63004;-61
2021/06/29 00:44:26;;;;;;;0.40;0.40;;;;;;;15.57;100.00;96769.53;29395;213;63009;-62
2021/06/29 00:44:57;;;;;;;0.40;0.40;;;;;;;15.64;100.00;96771.75;29394;196;64009;-61
2021/06/29 00:45:28;;;;;;;0.40;0.40;;;;;;;15.62;100.00;96765.78;29395;206;63008;-61
2021/06/29 00:45:59;;;;;;;0.40;0.40;;;;;;;15.59;100.00;96767.28;29395;202;63005;-61
2021/06/29 00:46:30;;;;;;;0.40;0.40;;;;;;;15.57;100.00;96766.00;29395;273;63009;-60
2021/06/29 00:47:02;;;;;;;0.50;0.50;;;;;;;15.57;100.00;96766.00;29395;275;63005;-61
2021/06/29 00:47:34;;;;;;;0.47;0.47;;;;;;;15.57;100.00;96768.75;29394;258;64014;-61
2021/06/29 00:48:06;;;;;;;0.40;0.40;;;;;;;15.55;100.00;96766.28;29395;372;63005;-62
2021/06/29 00:48:38;;;;;;;0.45;0.45;;;;;;;15.55;100.00;96773.69;29395;217;63009;-63
2021/06/29 00:49:09;;;;;;;0.40;0.40;;;;;;;15.56;100.00;96772.56;29395;253;63005;-62
2021/06/29 00:49:41;;;;;;;0.50;0.50;;;;;;;15.55;100.00;96768.22;29395;211;63009;-61
2021/06/29 00:50:16;;;;;;;0.40;0.40;;;;;;;15.57;100.00;96768.75;29395;227;63004;-60
2021/06/29 00:50:49;;;;;;;0.40;0.40;;;;;;;15.57;100.00;96772.28;29395;219;63009;-60
2021/06/29 00:51:22;;;;;;;0.43;0.43;;;;;;;15.59;100.00;96771.94;29394;268;64009;-61
2021/06/29 00:51:54;;;;;;;0.50;0.50;;;;;;;15.57;100.00;96769.53;29395;220;63018;-60
2021/06/29 00:52:28;;;;;;;0.50;0.50;;;;;;;15.56;100.00;96769.84;29395;227;63004;-61
2021/06/29 00:53:00;;;;;;;0.50;0.50;;;;;;;15.53;100.00;96767.75;29394;230;64013;-61
2021/06/29 00:53:32;;;;;;;0.50;0.50;;;;;;;15.55;100.00;96771.75;29395;272;63003;-60
2021/06/29 00:54:04;;;;;;;0.40;0.40;;;;;;;15.58;100.00;96775.81;29395;202;63009;-61
2021/06/29 00:54:37;;;;;;;0.40;0.40;;;;;;;15.55;100.00;96768.22;29395;303;63005;-61
2021/06/29 00:55:11;;;;;;;0.50;0.50;;;;;;;15.57;100.00;96775.00;29395;315;63009;-60
2021/06/29 00:55:44;;;;;;;0.50;0.50;;;;;;;15.58;100.00;96779.34;29395;283;63005;-61
2021/06/29 00:56:19;;;;;;;0.50;0.50;;;;;;;15.59;100.00;96772.75;29395;223;63009;-61
2021/06/29 00:56:50;;;;;;;0.40;0.40;;;;;;;15.59;100.00;96771.94;29395;245;63012;-57
2021/06/29 00:57:22;;;;;;;0.40;0.40;;;;;;;15.59;100.00;96766.47;29395;258;63009;-61
2021/06/29 00:57:55;;;;;;;0.50;0.50;;;;;;;15.57;100.00;96769.53;29395;204;63004;-62
2021/06/29 00:58:26;;;;;;;0.50;0.50;;;;;;;15.58;100.00;96773.06;29394;359;64013;-62
2021/06/29 00:58:57;;;;;;;0.40;0.40;;;;;;;15.60;100.00;96760.66;29395;275;63004;-60
2021/06/29 00:59:28;;;;;;;0.40;0.40;;;;;;;15.62;100.00;96766.59;29395;202;63009;-61
2021/06/29 00:59:59;;;;;;;0.50;0.50;;;;;;;15.59;100.00;96766.47;29395;226;63004;-61
2021/06/29 01:00:30;;;;;;;0.40;0.40;;;;;;;15.56;100.00;96762.47;29395;224;63024;-61
2021/06/29 01:01:02;;;;;;;0.40;0.40;;;;;;;15.57;100.00;96755.06;29395;298;63004;-61
2021/06/29 01:01:33;;;;;;;0.40;0.40;;;;;;;15.57;100.00;96758.59;29395;341;63009;-60
2021/06/29 01:02:05;;;;;;;0.47;0.47;;;;;;;15.57;100.00;96753.13;29395;288;63005;-61
2021/06/29 01:02:37;;;;;;;0.40;0.40;;;;;;;15.59;100.00;96752.81;29395;227;63009;-62
2021/06/29 01:03:08;;;;;;;0.45;0.45;;;;;;;15.60;100.00;96751.66;29395;236;63005;-61
2021/06/29 01:03:41;;;;;;;0.40;0.40;;;;;;;15.58;100.00;96752.00;29394;294;64013;-60
2021/06/29 01:04:13;;;;;;;0.47;0.47;;;;;;;15.58;100.00;96751.19;29395;223;63005;-61
2021/06/29 01:04:45;;;;;;;0.40;0.40;;;;;;;15.60;100.00;96746.19;29395;304;63009;-62
2021/06/29 01:05:16;;;;;;;0.40;0.40;;;;;;;15.63;100.00;96748.25;29395;335;63004;-59
2021/06/29 01:05:48;;;;;;;0.40;0.40;;;;;;;15.62;100.00;96743.91;29395;280;63009;-61
2021/06/29 01:06:21;;;;;;;0.40;0.40;;;;;;;15.59;100.00;96744.59;29395;268;63004;-60
2021/06/29 01:06:53;;;;;;;0.40;0.40;;;;;;;15.61;100.00;96745.03;29395;206;63009;-60
2021/06/29 01:07:25;;;;;;;0.40;0.40;;;;;;;15.60;100.00;96746.19;29395;202;63004;-61
2021/06/29 01:07:57;;;;;;;0.50;0.50;;;;;;;15.56;100.00;96750.69;29395;297;63008;-60
2021/06/29 01:08:32;;;;;;;0.40;0.40;;;;;;;15.53;100.00;96745.87;29395;217;63004;-61
2021/06/29 01:09:04;;;;;;;0.45;0.45;;;;;;;15.54;100.00;96744.75;29394;272;64014;-60
2021/06/29 01:09:36;;;;;;;0.50;0.50;;;;;;;15.54;100.00;96742.00;29395;226;63005;-61
2021/06/29 01:10:09;;;;;;;0.40;0.40;;;;;;;15.55;100.00;96744.41;29395;302;63009;-60
2021/06/29 01:10:41;;;;;;;0.40;0.40;;;;;;;15.55;100.00;96743.62;29395;253;63005;-60
2021/06/29 01:11:13;;;;;;;0.43;0.43;;;;;;;15.53;100.00;96740.41;29394;233;64029;-60
2021/06/29 01:11:44;;;;;;;0.50;0.50;;;;;;;15.51;100.00;96743.47;29395;332;63005;-61
2021/06/29 01:12:15;;;;;;;0.50;0.50;;;;;;;15.55;100.00;96743.62;29395;204;63009;-62
2021/06/29 01:12:46;;;;;;;0.50;0.50;;;;;;;15.58;100.00;96743.00;29395;328;63008;-62
2021/06/29 01:13:31;;;;;;;0.50;0.50;;;;;;;15.57;100.00;96741.38;29395;332;63009;-61
2021/06/29 01:14:13;;;;;;;0.50;0.50;;;;;;;15.63;100.00;96740.84;29395;249;63004;-60
2021/06/29 01:14:44;;;;;;;0.47;0.47;;;;;;;15.63;100.00;96740.06;29395;202;63008;-60
2021/06/29 01:15:23;;;;;;;0.50;0.50;;;;;;;15.61;100.00;96740.38;29395;211;63004;-61
2021/06/29 01:15:56;;;;;;;0.50;0.50;;;;;;;15.64;100.00;96736.19;29395;220;63009;-61
2021/06/29 01:16:29;;;;;;;0.45;0.45;;;;;;;15.65;100.00;96729.59;29394;269;64009;-60
2021/06/29 01:17:03;;;;;;;0.50;0.50;;;;;;;15.66;100.00;96722.97;29395;209;63009;-60
2021/06/29 01:17:35;;;;;;;0.50;0.50;;;;;;;15.66;100.00;96718.31;29395;207;63005;-62
2021/06/29 01:18:06;;;;;;;0.50;0.50;;;;;;;15.67;100.00;96721.84;29395;202;63009;-60
2021/06/29 01:18:40;;;;;;;0.50;0.50;;;;;;;15.67;100.00;96710.91;29395;205;63005;-61
2021/06/29 01:19:36;;;;;;;0.50;0.50;;;;;;;15.66;100.00;96712.03;29395;218;63009;-61
2021/06/29 01:20:15;;;;;;;0.50;0.50;;;;;;;15.67;100.00;96710.91;29395;224;63004;-63
2021/06/29 01:20:46;;;;;;;0.50;0.50;;;;;;;15.65;100.00;96710.44;29395;280;63009;-61
2021/06/29 01:21:21;;;;;;;0.50;0.50;;;;;;;15.66;100.00;96701.91;29395;267;63004;-61
2021/06/29 01:21:54;;;;;;;0.50;0.50;;;;;;;15.69;100.00;96708.66;29394;215;64013;-61
2021/06/29 01:22:27;;;;;;;0.40;0.40;;;;;;;15.66;100.00;96707.38;29395;205;63004;-61
2021/06/29 01:23:05;;;;;;;0.50;0.50;;;;;;;15.63;100.00;96708.03;29395;226;63009;-61
2021/06/29 01:23:37;;;;;;;0.50;0.50;;;;;;;15.65;100.00;96707.72;29395;216;63005;-60
2021/06/29 01:24:23;;;;;;;0.50;0.50;;;;;;;15.67;100.00;96708.19;29395;368;63009;-61
2021/06/29 01:24:58;;;;;;;0.40;0.40;;;;;;;15.66;100.00;96701.09;29395;204;63005;-61
2021/06/29 01:25:31;;;;;;;0.43;0.43;;;;;;;15.65;100.00;96699.50;29395;221;63009;-59
2021/06/29 01:26:25;;;;;;;0.50;0.50;;;;;;;15.67;100.00;96702.72;29395;208;63005;-60
2021/06/29 01:28:20;;;;;;;0.45;0.45;;;;;;;15.68;99.74;96698.84;29439;216;63008;-61
2021/06/29 01:28:56;;;;;;;0.50;0.50;;;;;;;15.72;99.54;96688.84;29395;206;63009;-60
2021/06/29 01:31:29;;;;;;;0.50;0.50;;;;;;;15.70;99.29;96688.38;29439;211;63005;-59
2021/06/29 01:32:00;;;;;;;0.40;0.40;;;;;;;15.71;99.10;96681.78;29394;197;64002;-60
2021/06/29 01:32:32;;;;;;;0.50;0.50;;;;;;;15.71;99.03;96687.25;29395;197;63005;-60
2021/06/29 01:33:04;;;;;;;0.50;0.50;;;;;;;15.68;99.46;96688.69;29395;328;63009;-60
2021/06/29 01:33:36;;;;;;;0.50;0.50;;;;;;;15.67;99.09;96686.28;29395;229;63005;-60
2021/06/29 01:34:07;;;;;;;0.50;0.50;;;;;;;15.69;99.12;96686.78;29395;227;63009;-63
2021/06/29 01:34:42;;;;;;;0.40;0.40;;;;;;;15.69;99.13;96684.84;29395;199;63010;-60
2021/06/29 01:35:14;;;;;;;0.50;0.50;;;;;;;15.71;98.98;96679.84;29395;294;63009;-60
2021/06/29 01:35:46;;;;;;;0.40;0.40;;;;;;;15.70;98.86;96671.97;29396;344;63004;-60
2021/06/29 01:36:19;;;;;;;0.40;0.40;;;;;;;15.72;98.82;96677.91;29396;237;63009;-62
2021/06/29 01:36:51;;;;;;;0.50;0.50;;;;;;;15.71;99.07;96679.03;29396;221;63004;-59
2021/06/29 01:37:23;;;;;;;0.50;0.50;;;;;;;15.73;98.85;96680.31;29395;215;64013;-61
2021/06/29 01:37:54;;;;;;;0.40;0.40;;;;;;;15.71;98.82;96676.31;29396;245;63004;-59
2021/06/29 01:38:26;;;;;;;0.50;0.50;;;;;;;15.70;99.10;96674.69;29396;247;63009;-62
2021/06/29 01:38:57;;;;;;;0.43;0.43;;;;;;;15.69;99.37;96673.09;29396;214;63005;-60
2021/06/29 01:39:32;;;;;;;0.50;0.50;;;;;;;15.64;99.03;96685.03;29395;208;63009;-60
2021/06/29 01:40:18;;;;;;;0.50;0.50;;;;;;;15.60;98.92;96680.53;29395;348;64005;-59
2021/06/29 01:40:50;;;;;;;0.50;0.50;;;;;;;15.59;99.26;96679.75;29396;207;63009;-60
2021/06/29 01:41:24;;;;;;;0.50;0.50;;;;;;;15.57;99.07;96681.22;29395;218;64023;-60
2021/06/29 01:41:55;;;;;;;0.50;0.50;;;;;;;15.56;99.35;96685.91;29396;280;63009;-60
2021/06/29 01:42:26;;;;;;;0.40;0.40;;;;;;;15.57;99.19;96682.03;29395;288;64009;-59
2021/06/29 01:42:59;;;;;;;0.50;0.50;;;;;;;15.58;99.16;96688.31;29396;223;63009;-60
2021/06/29 01:43:36;;;;;;;0.40;0.40;;;;;;;15.55;99.53;96689.72;29396;289;63004;-59
2021/06/29 01:44:13;;;;;;;0.40;0.40;;;;;;;15.50;99.27;96689.09;29396;362;63009;-59
2021/06/29 01:44:45;;;;;;;0.40;0.40;;;;;;;15.46;99.15;96699.91;29396;206;63004;-59
2021/06/29 01:45:17;;;;;;;0.40;0.40;;;;;;;15.47;99.27;96695.22;29396;239;63008;-60
2021/06/29 01:45:51;;;;;;;0.50;0.50;;;;;;;15.51;99.74;96683.31;29396;211;63005;-60
2021/06/29 01:46:25;;;;;;;0.40;0.40;;;;;;;15.53;99.59;96685.72;29396;197;63009;-60
2021/06/29 01:46:57;;;;;;;0.40;0.40;;;;;;;15.54;99.88;96682.66;29396;217;63012;-60
2021/06/29 01:47:39;;;;;;;0.50;0.50;;;;;;;15.57;99.67;96682.03;29395;213;64013;-59
2021/06/29 01:48:19;;;;;;;0.50;0.50;;;;;;;15.58;99.89;96685.56;29396;225;63005;-59
2021/06/29 01:48:52;;;;;;;0.50;0.50;;;;;;;15.62;99.85;96681.00;29396;218;63009;-60
2021/06/29 01:49:30;;;;;;;0.50;0.50;;;;;;;15.65;99.40;96677.63;29396;211;63005;-62
2021/06/29 01:50:15;;;;;;;0.40;0.40;;;;;;;15.66;99.63;96679.22;29396;227;63009;-59
2021/06/29 01:50:46;;;;;;;0.43;0.43;;;;;;;15.64;99.48;96676.00;29396;252;63004;-62
2021/06/29 01:51:18;;;;;;;0.50;0.50;;;;;;;15.64;98.97;96667.81;29396;297;63009;-60
2021/06/29 01:51:49;;;;;;;0.55;0.55;;;;;;;15.64;99.01;96671.34;29396;212;63004;-59
2021/06/29 01:52:20;;;;;;;0.40;0.40;;;;;;;15.64;98.71;96668.59;29396;301;63008;-59
2021/06/29 01:52:59;;;;;;;0.40;0.40;;;;;;;15.62;98.88;96670.06;29395;210;64008;-59
2021/06/29 01:53:30;;;;;;;0.40;0.40;;;;;;;15.58;98.88;96660.94;29396;208;63009;-59
2021/06/29 01:54:02;;;;;;;0.40;0.40;;;;;;;15.59;98.89;96662.56;29396;223;63005;-60
2021/06/29 01:54:34;;;;;;;0.40;0.40;;;;;;;15.60;98.85;96664.94;29396;339;63009;-61
2021/06/29 01:55:06;;;;;;;0.40;0.40;;;;;;;15.60;98.84;96664.13;29396;211;63005;-61
2021/06/29 01:55:38;;;;;;;0.40;0.40;;;;;;;15.62;98.94;96662.66;29396;330;63024;-60
2021/06/29 01:56:14;;;;;;;0.50;0.50;;;;;;;15.62;99.16;96661.88;29396;220;63005;-60
2021/06/29 01:56:47;;;;;;;0.47;0.47;;;;;;;15.60;99.31;96664.13;29396;280;63024;-60
2021/06/29 01:57:18;;;;;;;0.40;0.40;;;;;;;15.58;99.42;96671.88;29396;214;63004;-59
2021/06/29 01:57:51;;;;;;;0.40;0.40;;;;;;;15.54;99.27;96681.84;29396;215;63009;-60
2021/06/29 01:58:27;;;;;;;0.40;0.40;;;;;;;15.54;99.12;96685.37;29395;299;64009;-59
2021/06/29 01:59:06;;;;;;;0.40;0.40;;;;;;;15.54;99.32;96690.84;29396;204;63009;-60
2021/06/29 01:59:43;;;;;;;0.40;0.40;;;;;;;15.55;99.55;96699.88;29396;215;63004;-59
2021/06/29 02:00:17;;;;;;;0.40;0.40;;;;;;;15.53;99.89;96699.38;29396;280;63008;-60
2021/06/29 02:00:49;;;;;;;0.40;0.40;;;;;;;15.56;99.93;96702.31;29396;231;63005;-60
2021/06/29 02:01:21;;;;;;;0.40;0.40;;;;;;;15.57;99.76;96714.03;29396;220;63009;-60
2021/06/29 02:01:52;;;;;;;0.40;0.40;;;;;;;15.55;99.89;96713.53;29396;373;63005;-60
2021/06/29 02:02:23;;;;;;;0.40;0.40;;;;;;;15.55;99.86;96721.75;29396;216;63009;-60
2021/06/29 02:02:55;;;;;;;0.50;0.50;;;;;;;15.55;99.79;96732.69;29396;208;63005;-60
2021/06/29 02:03:26;;;;;;;0.40;0.40;;;;;;;15.54;100.00;96731.87;29395;213;64013;-60
2021/06/29 02:03:57;;;;;;;0.40;0.40;;;;;;;15.53;99.95;96729.47;29396;218;63005;-59
2021/06/29 02:04:28;;;;;;;0.43;0.43;;;;;;;15.52;99.82;96738.81;29396;237;63009;-60
2021/06/29 02:05:00;;;;;;;0.40;0.40;;;;;;;15.52;99.87;96744.28;29396;215;63004;-60
2021/06/29 02:05:31;;;;;;;0.40;0.40;;;;;;;15.51;100.00;96742.66;29396;221;63009;-60
2021/06/29 02:06:03;;;;;;;0.40;0.40;;;;;;;15.47;99.94;96747.19;29396;198;63004;-60
2021/06/29 02:06:35;;;;;;;0.40;0.40;;;;;;;15.50;100.00;96738.31;29396;209;63008;-60
2021/06/29 02:07:06;;;;;;;0.40;0.40;;;;;;;15.50;100.00;96735.59;29396;214;63004;-60
2021/06/29 02:07:37;;;;;;;0.40;0.40;;;;;;;15.51;100.00;96742.66;29396;199;63009;-60
2021/06/29 02:08:09;;;;;;;3.62;0.88;;;;;;;15.52;100.00;96736.88;29396;218;63005;-58
2021/06/29 02:08:42;;;;;;;0.40;0.40;;;;;;;15.52;100.00;96738.81;29395;334;64014;-58
2021/06/29 02:09:17;;;;;;;0.40;0.40;;;;;;;15.48;100.00;96737.84;29396;205;63005;-60
2021/06/29 02:09:48;;;;;;;0.40;0.40;;;;;;;15.49;100.00;96744.91;29396;274;63009;-60
2021/06/29 02:10:20;;;;;;;0.40;0.40;;;;;;;15.43;100.00;96742.38;29396;278;63005;-59
2021/06/29 02:10:51;;;;;;;0.40;0.40;;;;;;;15.42;100.00;96751.69;29396;228;63009;-61
2021/06/29 02:11:23;;;;;;;0.40;0.40;;;;;;;15.46;100.00;96751.03;29396;221;63005;-60
2021/06/29 02:11:54;;;;;;;0.40;0.40;;;;;;;15.46;100.00;96754.59;29396;239;63009;-59
2021/06/29 02:12:25;;;;;;;0.40;0.40;;;;;;;15.45;100.00;96752.19;29396;211;63004;-61
2021/06/29 02:12:58;;;;;;;0.40;0.40;;;;;;;15.42;100.00;96756.38;29396;212;63009;-59
2021/06/29 02:13:29;;;;;;;0.40;0.40;;;;;;;15.45;100.00;96754.91;29396;292;63004;-61
2021/06/29 02:14:00;;;;;;;0.40;0.40;;;;;;;15.45;100.00;96768.56;29395;322;64013;-60
2021/06/29 02:14:31;;;;;;;0.40;0.40;;;;;;;15.45;100.00;96774.03;29396;222;63004;-58
2021/06/29 02:15:04;;;;;;;0.40;0.40;;;;;;;15.47;100.00;96780.00;29396;234;63009;-59
2021/06/29 02:15:36;;;;;;;0.40;0.40;;;;;;;15.49;100.00;96777.72;29396;199;63005;-58
2021/06/29 02:16:07;;;;;;;0.40;0.40;;;;;;;15.48;100.00;96779.66;29396;200;63009;-58
2021/06/29 02:16:38;;;;;;;0.40;0.40;;;;;;;15.48;100.00;96778.88;29396;216;63017;-58
2021/06/29 02:17:10;;;;;;;0.40;0.40;;;;;;;15.49;100.00;96777.72;29396;197;63009;-58
2021/06/29 02:17:42;;;;;;;0.40;0.40;;;;;;;15.47;100.00;96780.00;29396;208;63005;-59
2021/06/29 02:18:13;;;;;;;0.47;0.47;;;;;;;15.46;100.00;96783.84;29396;231;63009;-58
2021/06/29 02:18:44;;;;;;;0.40;0.40;;;;;;;15.43;100.00;96780.62;29396;202;64009;-59
2021/06/29 02:19:15;;;;;;;0.40;0.40;;;;;;;15.49;100.00;96772.28;29397;287;63009;-57
2021/06/29 02:19:47;;;;;;;0.30;0.30;;;;;;;15.47;100.00;96775.31;29397;353;63004;-58
2021/06/29 02:20:18;;;;;;;0.40;0.40;;;;;;;15.48;100.00;96774.19;29397;225;63009;-59
2021/06/29 02:20:49;;;;;;;0.40;0.40;;;;;;;15.50;100.00;96779.34;29397;338;63004;-59
2021/06/29 02:21:20;;;;;;;0.40;0.40;;;;;;;15.48;100.00;96771.47;29397;241;63009;-60
2021/06/29 02:21:52;;;;;;;0.40;0.40;;;;;;;15.46;100.00;96778.38;29397;335;63004;-58
2021/06/29 02:22:23;;;;;;;0.40;0.40;;;;;;;15.45;99.78;96777.59;29397;202;63021;-59
2021/06/29 02:22:57;;;;;;;0.40;0.40;;;;;;;15.43;99.88;96775.19;29397;326;63012;-60
2021/06/29 02:23:28;;;;;;;0.40;0.40;;;;;;;15.43;99.98;96777.91;29397;301;63009;-59
2021/06/29 02:23:59;;;;;;;0.40;0.40;;;;;;;15.43;99.88;96782.56;29396;197;64009;-58
2021/06/29 02:24:30;;;;;;;0.40;0.40;;;;;;;15.46;100.00;96778.38;29397;310;63009;-60
2021/06/29 02:25:03;;;;;;;0.45;0.45;;;;;;;15.46;100.00;96779.19;29397;211;63009;-59
2021/06/29 02:25:35;;;;;;;0.40;0.40;;;;;;;15.41;99.69;96766.50;29397;242;63009;-60
2021/06/29 02:26:06;;;;;;;0.40;0.40;;;;;;;15.40;99.94;96775.81;29397;353;63005;-58
2021/06/29 02:26:37;;;;;;;0.40;0.40;;;;;;;15.39;100.00;96771.50;29397;203;63009;-59
2021/06/29 02:27:08;;;;;;;0.40;0.40;;;;;;;15.37;100.00;96775.66;29396;309;64009;-59
2021/06/29 02:27:40;;;;;;;0.40;0.40;;;;;;;15.34;99.77;96777.13;29397;199;63009;-60
2021/06/29 02:28:11;;;;;;;0.40;0.40;;;;;;;15.34;99.89;96776.31;29397;227;63004;-59
2021/06/29 02:28:43;;;;;;;0.40;0.40;;;;;;;15.33;99.91;96775.53;29397;209;63009;-59
2021/06/29 02:29:17;;;;;;;0.40;0.40;;;;;;;15.34;99.97;96771.66;29397;304;63004;-59
2021/06/29 02:29:48;;;;;;;0.40;0.40;;;;;;;15.35;100.00;96778.72;29397;210;63008;-59
2021/06/29 02:30:20;;;;;;;0.40;0.40;;;;;;;15.30;100.00;96776.16;29397;276;63005;-58
2021/06/29 02:30:51;;;;;;;0.40;0.40;;;;;;;15.34;99.95;96777.13;29397;247;63009;-59
2021/06/29 02:31:22;;;;;;;0.40;0.40;;;;;;;15.36;100.00;96783.06;29397;336;63005;-59
2021/06/29 02:31:53;;;;;;;0.40;0.40;;;;;;;15.38;100.00;96783.56;29396;329;64013;-59
2021/06/29 02:32:26;;;;;;;0.40;0.40;;;;;;;15.38;100.00;96783.56;29396;202;63005;-59
2021/06/29 02:32:57;;;;;;;0.40;0.40;;;;;;;15.39;100.00;96778.88;29396;198;63015;-58
2021/06/29 02:33:28;;;;;;;0.40;0.40;;;;;;;15.40;100.00;96786.75;29396;231;63005;-58
2021/06/29 02:33:59;;;;;;;0.40;0.40;;;;;;;15.39;100.00;96787.88;29396;305;63009;-58
2021/06/29 02:34:30;;;;;;;0.40;0.40;;;;;;;15.38;100.00;96789.00;29396;214;63004;-58
2021/06/29 02:35:02;;;;;;;0.40;0.40;;;;;;;15.39;100.00;96787.88;29396;274;64013;-58
2021/06/29 02:35:34;;;;;;;0.40;0.40;;;;;;;15.37;100.00;96776.47;29396;203;63004;-59
2021/06/29 02:36:06;;;;;;;0.40;0.40;;;;;;;15.37;100.00;96786.59;29396;206;63009;-59
2021/06/29 02:36:37;;;;;;;0.40;0.40;;;;;;;15.39;100.00;96778.88;29396;221;63004;-58
2021/06/29 02:37:09;;;;;;;0.40;0.40;;;;;;;15.41;100.00;96766.50;29396;354;63008;-59
2021/06/29 02:37:40;;;;;;;0.40;0.40;;;;;;;15.43;100.00;96772.44;29396;298;63005;-58